createdAt,value
2023-04-06T00:02:18.354Z,-1.93
2023-04-06T00:04:46.276Z,-1.94
2023-04-06T00:07:14.145Z,-1.94
2023-04-06T00:09:42.028Z,-1.95
2023-04-06T00:12:09.794Z,-1.98
2023-04-06T00:14:38.678Z,-2.02
2023-04-06T00:17:06.441Z,-2.06
2023-04-06T00:19:34.251Z,-2.12
2023-04-06T00:22:02.086Z,-2.18
2023-04-06T00:24:29.872Z,-2.24
2023-04-06T00:26:57.658Z,-2.28
2023-04-06T00:29:25.368Z,-2.32
2023-04-06T00:31:53.226Z,-2.36
2023-04-06T00:34:21.118Z,-2.38
2023-04-06T00:36:48.883Z,-2.37
2023-04-06T00:39:17.982Z,-2.37
2023-04-06T00:41:50.112Z,-2.36
2023-04-06T00:44:19.593Z,-2.34
2023-04-06T00:46:47.337Z,-2.31
2023-04-06T00:49:15.336Z,-2.28
2023-04-06T00:51:43.344Z,-2.24
2023-04-06T00:54:11.086Z,-2.22
2023-04-06T00:56:38.914Z,-2.20
2023-04-06T01:01:35.028Z,-2.24
2023-04-06T01:04:06.508Z,-2.27
2023-04-06T01:06:40.127Z,-2.30
2023-04-06T01:09:08.260Z,-2.32
2023-04-06T01:11:36.818Z,-2.33
2023-04-06T01:14:05.711Z,-2.31
2023-04-06T01:16:46.834Z,-2.29
2023-04-06T01:19:20.255Z,-2.27
2023-04-06T01:21:51.530Z,-2.27
2023-04-06T01:24:25.740Z,-2.27
2023-04-06T01:27:02.389Z,-2.26
2023-04-06T01:29:37.504Z,-2.27
2023-04-06T01:32:07.215Z,-2.29
2023-04-06T01:34:37.900Z,-2.31
2023-04-06T01:37:06.539Z,-2.35
2023-04-06T01:39:34.387Z,-2.41
2023-04-06T01:42:03.003Z,-2.48
2023-04-06T01:44:32.433Z,-2.55
2023-04-06T01:47:09.728Z,-2.62
2023-04-06T01:49:37.826Z,-2.68
2023-04-06T01:52:06.217Z,-2.73
2023-04-06T01:54:35.648Z,-2.78
2023-04-06T01:57:16.563Z,-2.82
2023-04-06T01:59:52.118Z,-2.86
2023-04-06T02:02:41.179Z,-2.89
2023-04-06T02:05:14.189Z,-2.92
2023-04-06T02:07:42.386Z,-2.93
2023-04-06T02:10:14.909Z,-2.93
2023-04-06T02:12:44.130Z,-2.96
2023-04-06T02:15:14.337Z,-2.99
2023-04-06T02:17:42.724Z,-3.02
2023-04-06T02:20:11.115Z,-3.06
2023-04-06T02:22:38.846Z,-3.09
2023-04-06T02:25:06.980Z,-3.10
2023-04-06T02:27:34.943Z,-3.08
2023-04-06T02:30:03.178Z,-3.07
2023-04-06T02:32:31.263Z,-3.06
2023-04-06T02:34:59.609Z,-3.08
2023-04-06T02:37:27.462Z,-3.08
2023-04-06T02:39:55.341Z,-3.08
2023-04-06T02:42:26.724Z,-3.08
2023-04-06T02:44:54.666Z,-3.07
2023-04-06T02:47:25.746Z,-3.07
2023-04-06T02:49:53.811Z,-3.08
2023-04-06T02:52:22.153Z,-3.08
2023-04-06T02:54:49.994Z,-3.09
2023-04-06T02:57:20.348Z,-3.11
2023-04-06T02:59:48.162Z,-3.11
2023-04-06T03:02:27.209Z,-3.11
2023-04-06T03:04:57.350Z,-3.08
2023-04-06T03:07:30.355Z,-3.05
2023-04-06T03:09:58.102Z,-3.05
2023-04-06T03:12:25.815Z,-3.07
2023-04-06T03:15:16.173Z,-3.11
2023-04-06T03:17:47.659Z,-3.17
2023-04-06T03:20:38.099Z,-3.21
2023-04-06T03:23:05.991Z,-3.24
2023-04-06T03:25:36.809Z,-3.25
2023-04-06T03:28:06.923Z,-3.26
2023-04-06T03:30:38.505Z,-3.26
2023-04-06T03:33:06.845Z,-3.26
2023-04-06T03:35:38.562Z,-3.25
2023-04-06T03:38:06.545Z,-3.23
2023-04-06T03:40:34.332Z,-3.21
2023-04-06T03:43:02.317Z,-3.19
2023-04-06T03:45:31.286Z,-3.17
2023-04-06T03:47:59.144Z,-3.19
2023-04-06T03:50:27.067Z,-3.21
2023-04-06T03:52:54.946Z,-3.23
2023-04-06T03:55:22.757Z,-3.24
2023-04-06T03:57:50.567Z,-3.25
2023-04-06T04:00:19.318Z,-3.25
2023-04-06T04:02:48.589Z,-3.25
2023-04-06T04:05:16.620Z,-3.24
2023-04-06T04:07:44.394Z,-3.24
2023-04-06T04:10:13.248Z,-3.23
2023-04-06T04:12:41.245Z,-3.21
2023-04-06T04:15:09.457Z,-3.19
2023-04-06T04:17:37.339Z,-3.17
2023-04-06T04:20:07.328Z,-3.16
2023-04-06T04:22:35.688Z,-3.14
2023-04-06T04:25:03.473Z,-3.12
2023-04-06T04:27:32.394Z,-3.09
2023-04-06T04:30:00.348Z,-3.03
2023-04-06T04:32:28.206Z,-2.98
2023-04-06T04:34:56.722Z,-2.91
2023-04-06T04:37:33.981Z,-2.83
2023-04-06T04:40:02.014Z,-2.74
2023-04-06T04:42:31.783Z,-2.65
2023-04-06T04:45:00.381Z,-2.56
2023-04-06T04:47:34.310Z,-2.49
2023-04-06T04:50:02.081Z,-2.41
2023-04-06T04:52:33.958Z,-2.33
2023-04-06T04:55:15.465Z,-2.24
2023-04-06T04:57:44.955Z,-2.14
2023-04-06T05:00:13.452Z,-2.06
2023-04-06T05:02:42.906Z,-1.95
2023-04-06T05:05:30.890Z,-1.85
2023-04-06T05:07:58.925Z,-1.73
2023-04-06T05:10:41.808Z,-1.61
2023-04-06T05:13:09.952Z,-1.51
2023-04-06T05:15:37.943Z,-1.39
2023-04-06T05:18:11.861Z,-1.27
2023-04-06T05:20:43.563Z,-1.19
2023-04-06T05:23:12.546Z,-1.12
2023-04-06T05:25:43.806Z,-1.04
2023-04-06T05:28:16.643Z,-0.95
2023-04-06T05:30:45.697Z,-0.88
2023-04-06T05:33:14.115Z,-0.82
2023-04-06T05:36:17.900Z,-0.74
2023-04-06T05:38:47.438Z,-0.65
2023-04-06T05:41:30.959Z,-0.57
2023-04-06T05:43:58.899Z,-0.48
2023-04-06T05:46:27.240Z,-0.39
2023-04-06T05:48:56.068Z,-0.27
2023-04-06T05:51:26.337Z,-0.12
2023-04-06T05:53:54.165Z,0.01
2023-04-06T05:56:23.173Z,0.13
2023-04-06T05:58:53.810Z,0.23
2023-04-06T06:01:26.355Z,0.32
2023-04-06T06:03:54.296Z,0.43
2023-04-06T06:06:23.823Z,0.55
2023-04-06T06:09:16.268Z,0.78
2023-04-06T06:11:51.569Z,0.99
2023-04-06T06:14:19.985Z,1.16
2023-04-06T06:16:50.315Z,1.37
2023-04-06T06:19:18.636Z,1.61
2023-04-06T06:21:47.721Z,1.81
2023-04-06T06:24:16.422Z,2.01
2023-04-06T06:26:46.793Z,2.19
2023-04-06T06:29:18.447Z,2.36
2023-04-06T06:31:46.523Z,2.51
2023-04-06T06:34:18.058Z,2.52
2023-04-06T06:36:48.404Z,2.58
2023-04-06T06:39:17.871Z,2.73
2023-04-06T06:41:46.239Z,2.99
2023-04-06T06:44:26.852Z,3.13
2023-04-06T06:47:12.372Z,3.39
2023-04-06T06:50:11.986Z,3.53
2023-04-06T06:52:44.112Z,3.62
2023-04-06T06:55:17.305Z,3.75
2023-04-06T06:58:08.033Z,3.85
2023-04-06T07:00:56.312Z,3.97
2023-04-06T07:03:56.396Z,4.01
2023-04-06T07:06:29.150Z,3.96
2023-04-06T07:09:04.069Z,3.95
2023-04-06T07:11:35.600Z,3.83
2023-04-06T07:14:28.406Z,3.65
2023-04-06T07:17:26.240Z,3.55
2023-04-06T07:19:59.758Z,3.50
2023-04-06T07:22:38.905Z,3.48
2023-04-06T07:25:29.964Z,3.39
2023-04-06T07:27:59.652Z,3.19
2023-04-06T07:30:32.721Z,2.99
2023-04-06T07:33:02.174Z,2.92
2023-04-06T07:35:30.962Z,2.92
2023-04-06T07:37:59.010Z,2.97
2023-04-06T07:40:26.943Z,3.05
2023-04-06T07:42:56.211Z,2.97
2023-04-06T07:45:28.237Z,2.98
2023-04-06T07:47:56.719Z,3.01
2023-04-06T07:50:25.921Z,3.03
2023-04-06T07:52:54.114Z,3.01
2023-04-06T07:55:25.847Z,3.03
2023-04-06T07:57:58.983Z,3.13
2023-04-06T08:00:46.075Z,3.11
2023-04-06T08:03:14.227Z,3.07
2023-04-06T08:05:42.576Z,3.10
2023-04-06T08:08:10.497Z,3.15
2023-04-06T08:10:39.960Z,3.11
2023-04-06T08:13:07.680Z,3.08
2023-04-06T08:15:35.631Z,2.97
2023-04-06T08:18:04.126Z,2.91
2023-04-06T08:20:32.085Z,2.91
2023-04-06T08:22:59.997Z,3.06
2023-04-06T08:25:28.449Z,3.17
2023-04-06T08:27:56.299Z,3.25
2023-04-06T08:30:24.127Z,3.35
2023-04-06T08:32:52.093Z,3.29
2023-04-06T08:35:20.049Z,3.38
2023-04-06T08:37:48.077Z,3.58
2023-04-06T08:40:16.155Z,3.66
2023-04-06T08:42:50.545Z,3.79
2023-04-06T08:45:19.080Z,3.96
2023-04-06T08:47:47.567Z,4.22
2023-04-06T08:50:16.707Z,4.45
2023-04-06T08:52:50.845Z,4.72
2023-04-06T08:55:18.883Z,4.91
2023-04-06T08:57:47.533Z,5.01
2023-04-06T09:00:16.570Z,5.09
2023-04-06T09:02:46.322Z,5.11
2023-04-06T09:05:14.584Z,5.09
2023-04-06T09:07:42.718Z,5.24
2023-04-06T09:10:14.993Z,5.60
2023-04-06T09:12:45.286Z,5.81
2023-04-06T09:15:22.132Z,5.80
2023-04-06T09:17:55.248Z,5.85
2023-04-06T09:20:25.332Z,5.80
2023-04-06T09:22:53.553Z,5.83
2023-04-06T09:25:22.898Z,5.96
2023-04-06T09:28:01.565Z,6.22
2023-04-06T09:31:00.861Z,6.45
2023-04-06T09:33:31.205Z,6.22
2023-04-06T09:36:01.842Z,5.81
2023-04-06T09:38:57.748Z,5.63
2023-04-06T09:41:37.582Z,5.66
2023-04-06T09:44:08.739Z,5.54
2023-04-06T09:46:58.917Z,5.38
2023-04-06T09:49:40.589Z,5.41
2023-04-06T09:52:11.890Z,5.44
2023-04-06T09:54:40.560Z,5.60
2023-04-06T09:57:14.866Z,5.80
2023-04-06T09:59:49.659Z,5.81
2023-04-06T10:02:31.647Z,5.79
2023-04-06T10:05:19.981Z,5.88
2023-04-06T10:10:25.173Z,6.30
2023-04-06T10:12:55.851Z,6.30
2023-04-06T10:15:29.706Z,6.26
2023-04-06T10:17:58.842Z,6.32
2023-04-06T10:20:30.250Z,6.36
2023-04-06T10:23:19.870Z,6.49
2023-04-06T10:26:17.157Z,6.43
2023-04-06T10:29:03.511Z,6.36
2023-04-06T10:31:31.449Z,6.19
2023-04-06T10:34:04.909Z,5.82
2023-04-06T10:36:35.937Z,5.67
2023-04-06T10:39:05.167Z,5.50
2023-04-06T10:41:37.778Z,5.26
2023-04-06T10:44:09.138Z,5.23
2023-04-06T10:46:53.099Z,5.35
2023-04-06T10:49:21.291Z,5.62
2023-04-06T10:51:55.183Z,5.82
2023-04-06T10:54:25.873Z,6.01
2023-04-06T10:56:53.706Z,6.15
2023-04-06T10:59:22.101Z,6.13
2023-04-06T11:02:10.370Z,6.05
2023-04-06T11:04:52.058Z,6.07
2023-04-06T11:07:23.990Z,6.15
2023-04-06T11:10:04.818Z,6.33
2023-04-06T11:12:43.261Z,6.72
2023-04-06T11:15:13.526Z,7.00
2023-04-06T11:17:41.498Z,7.11
2023-04-06T11:20:11.551Z,7.07
2023-04-06T11:22:49.428Z,6.94
2023-04-06T11:25:17.394Z,6.87
2023-04-06T11:27:45.903Z,6.70
2023-04-06T11:30:14.318Z,6.46
2023-04-06T11:32:43.741Z,6.34
2023-04-06T11:35:12.444Z,6.25
2023-04-06T11:37:40.372Z,6.00
2023-04-06T11:40:10.290Z,5.71
2023-04-06T11:42:38.172Z,5.58
2023-04-06T11:45:08.170Z,5.46
2023-04-06T11:47:37.045Z,5.37
2023-04-06T11:50:11.868Z,5.24
2023-04-06T11:52:41.006Z,5.05
2023-04-06T11:55:12.964Z,4.90
2023-04-06T11:57:40.912Z,4.76
2023-04-06T12:00:10.104Z,4.60
2023-04-06T12:02:38.585Z,4.43
2023-04-06T12:05:07.504Z,4.27
2023-04-06T12:07:35.462Z,4.09
2023-04-06T12:10:04.033Z,3.91
2023-04-06T12:12:32.333Z,3.83
2023-04-06T12:15:04.274Z,3.69
2023-04-06T12:17:32.324Z,3.60
2023-04-06T12:20:26.995Z,3.61
2023-04-06T12:23:00.294Z,3.56
2023-04-06T12:25:31.142Z,3.57
2023-04-06T12:28:23.147Z,3.68
2023-04-06T12:30:51.685Z,3.72
2023-04-06T12:33:22.827Z,3.65
2023-04-06T12:35:54.581Z,3.57
2023-04-06T12:38:22.383Z,3.49
2023-04-06T12:40:50.148Z,3.29
2023-04-06T12:43:18.134Z,3.20
2023-04-06T12:45:46.100Z,3.17
2023-04-06T12:48:14.471Z,3.10
2023-04-06T12:50:42.554Z,3.09
2023-04-06T12:53:11.119Z,3.10
2023-04-06T12:55:38.943Z,3.05
2023-04-06T12:58:07.119Z,3.00
2023-04-06T13:00:35.680Z,3.01
2023-04-06T13:03:28.450Z,2.98
2023-04-06T13:05:56.402Z,2.87
2023-04-06T13:08:24.568Z,2.78
2023-04-06T13:10:52.731Z,2.73
2023-04-06T13:13:30.229Z,2.72
2023-04-06T13:16:03.182Z,2.65
2023-04-06T13:18:31.641Z,2.54
2023-04-06T13:20:59.951Z,2.48
2023-04-06T13:23:29.645Z,2.40
2023-04-06T13:25:58.350Z,2.30
2023-04-06T13:28:27.065Z,2.21
2023-04-06T13:30:55.394Z,2.17
2023-04-06T13:33:23.714Z,2.14
2023-04-06T13:35:51.798Z,2.18
2023-04-06T13:38:19.816Z,2.19
2023-04-06T13:40:48.031Z,2.17
2023-04-06T13:43:21.749Z,2.13
2023-04-06T13:45:50.727Z,2.12
2023-04-06T13:48:18.945Z,2.11
2023-04-06T13:50:47.358Z,2.12
2023-04-06T13:53:15.281Z,2.16
2023-04-06T13:55:43.500Z,2.15
2023-04-06T13:58:11.589Z,2.14
2023-04-06T14:00:43.624Z,2.18
2023-04-06T14:03:31.505Z,2.19
2023-04-06T14:06:05.161Z,2.16
2023-04-06T14:08:50.209Z,2.15
2023-04-06T14:11:18.211Z,2.15
2023-04-06T14:13:46.791Z,2.11
2023-04-06T14:16:15.041Z,2.08
2023-04-06T14:18:42.983Z,2.05
2023-04-06T14:21:14.573Z,2.06
2023-04-06T14:23:45.230Z,2.09
2023-04-06T14:26:16.537Z,2.11
2023-04-06T14:28:46.024Z,2.10
2023-04-06T14:31:26.512Z,2.12
2023-04-06T14:33:54.527Z,2.13
2023-04-06T14:36:22.369Z,2.11
2023-04-06T14:38:50.826Z,2.07
2023-04-06T14:41:25.455Z,2.04
2023-04-06T14:44:02.947Z,2.02
2023-04-06T14:46:34.394Z,1.99
2023-04-06T14:49:05.690Z,1.96
2023-04-06T14:51:36.063Z,1.93
2023-04-06T14:54:04.183Z,1.91
2023-04-06T14:56:34.799Z,1.90
2023-04-06T14:59:06.321Z,1.88
2023-04-06T15:01:38.072Z,1.88
2023-04-06T15:04:08.219Z,1.89
2023-04-06T15:06:38.596Z,1.88
2023-04-06T15:09:06.369Z,1.88
2023-04-06T15:11:34.562Z,1.88
2023-04-06T15:14:02.904Z,1.88
2023-04-06T15:16:30.732Z,1.87
2023-04-06T15:18:59.311Z,1.84
2023-04-06T15:21:30.297Z,1.80
2023-04-06T15:24:00.527Z,1.75
2023-04-06T15:26:30.749Z,1.75
2023-04-06T15:29:01.085Z,1.73
2023-04-06T15:31:37.779Z,1.73
2023-04-06T15:34:07.099Z,1.74
2023-04-06T15:36:34.902Z,1.78
2023-04-06T15:39:03.414Z,1.78
2023-04-06T15:41:31.817Z,1.78
2023-04-06T15:43:59.722Z,1.76
2023-04-06T15:46:28.508Z,1.74
2023-04-06T15:48:57.242Z,1.73
2023-04-06T15:51:25.098Z,1.68
2023-04-06T15:53:52.964Z,1.60
2023-04-06T15:56:21.264Z,1.53
2023-04-06T15:58:49.646Z,1.52
2023-04-06T16:01:18.447Z,1.50
2023-04-06T16:03:47.088Z,1.49
2023-04-06T16:06:14.979Z,1.48
2023-04-06T16:08:42.786Z,1.47
2023-04-06T16:11:10.978Z,1.47
2023-04-06T16:13:38.987Z,1.48
2023-04-06T16:16:07.148Z,1.50
2023-04-06T16:18:36.566Z,1.54
2023-04-06T16:21:04.582Z,1.56
2023-04-06T16:23:32.436Z,1.57
2023-04-06T16:26:00.841Z,1.58
2023-04-06T16:28:28.613Z,1.57
2023-04-06T16:30:56.627Z,1.57
2023-04-06T16:33:24.801Z,1.55
2023-04-06T16:35:55.601Z,1.50
2023-04-06T16:38:23.703Z,1.47
2023-04-06T16:41:01.499Z,1.46
2023-04-06T16:43:29.376Z,1.44
2023-04-06T16:45:57.250Z,1.41
2023-04-06T16:48:25.406Z,1.39
2023-04-06T16:50:53.357Z,1.37
2023-04-06T16:53:21.229Z,1.34
2023-04-06T16:55:49.349Z,1.32
2023-04-06T16:58:17.373Z,1.30
2023-04-06T17:00:47.731Z,1.30
2023-04-06T17:03:16.331Z,1.30
2023-04-06T17:05:44.634Z,1.31
2023-04-06T17:08:12.730Z,1.31
2023-04-06T17:10:41.708Z,1.28
2023-04-06T17:13:19.742Z,1.28
2023-04-06T17:15:47.766Z,1.28
2023-04-06T17:18:15.640Z,1.29
2023-04-06T17:20:43.621Z,1.29
2023-04-06T17:23:11.811Z,1.26
2023-04-06T17:25:39.678Z,1.22
2023-04-06T17:28:07.651Z,1.17
2023-04-06T17:30:36.543Z,1.14
2023-04-06T17:33:04.510Z,1.11
2023-04-06T17:35:32.625Z,1.10
2023-04-06T17:38:01.176Z,1.06
2023-04-06T17:40:29.023Z,1.04
2023-04-06T17:42:57.065Z,1.01
2023-04-06T17:45:25.085Z,0.97
2023-04-06T17:47:53.078Z,0.95
2023-04-06T17:50:21.581Z,0.94
2023-04-06T17:52:52.769Z,0.92
2023-04-06T17:55:20.939Z,0.90
2023-04-06T17:57:51.972Z,0.90
2023-04-06T18:00:20.846Z,0.90
2023-04-06T18:02:55.344Z,0.89
2023-04-06T18:05:26.483Z,0.91
2023-04-06T18:07:54.468Z,0.92
2023-04-06T18:10:22.760Z,0.94
2023-04-06T18:12:51.689Z,0.93
2023-04-06T18:15:19.523Z,0.92
2023-04-06T18:17:47.484Z,0.90
2023-04-06T18:20:18.666Z,0.87
2023-04-06T18:22:46.878Z,0.85
2023-04-06T18:25:14.691Z,0.86
2023-04-06T18:27:43.879Z,0.84
2023-04-06T18:30:15.348Z,0.83
2023-04-06T18:32:43.638Z,0.81
2023-04-06T18:35:12.100Z,0.78
2023-04-06T18:37:40.208Z,0.76
2023-04-06T18:40:08.708Z,0.74
2023-04-06T18:42:41.693Z,0.75
2023-04-06T18:45:18.922Z,0.74
2023-04-06T18:47:47.492Z,0.72
2023-04-06T18:50:18.177Z,0.70
2023-04-06T18:52:49.699Z,0.70
2023-04-06T18:55:17.831Z,0.71
2023-04-06T18:57:48.733Z,0.71
2023-04-06T19:00:17.387Z,0.73
2023-04-06T19:02:48.939Z,0.73
2023-04-06T19:05:17.133Z,0.74
2023-04-06T19:07:45.697Z,0.75
2023-04-06T19:10:33.726Z,0.75
2023-04-06T19:13:04.874Z,0.75
2023-04-06T19:15:33.412Z,0.74
2023-04-06T19:18:01.371Z,0.74
2023-04-06T19:20:29.874Z,0.74
2023-04-06T19:22:58.119Z,0.73
2023-04-06T19:25:26.035Z,0.73
2023-04-06T19:27:56.486Z,0.73
2023-04-06T19:30:24.552Z,0.72
2023-04-06T19:32:55.363Z,0.72
2023-04-06T19:35:23.721Z,0.72
2023-04-06T19:37:51.948Z,0.72
2023-04-06T19:40:22.682Z,0.72
2023-04-06T19:42:50.942Z,0.72
2023-04-06T19:45:19.309Z,0.73
2023-04-06T19:47:47.552Z,0.73
2023-04-06T19:50:16.034Z,0.72
2023-04-06T19:52:43.967Z,0.72
2023-04-06T19:55:11.841Z,0.74
2023-04-06T19:57:40.038Z,0.73
2023-04-06T20:00:08.416Z,0.74
2023-04-06T20:02:39.158Z,0.74
2023-04-06T20:05:07.467Z,0.74
2023-04-06T20:07:35.338Z,0.74
2023-04-06T20:10:04.624Z,0.74
2023-04-06T20:12:32.533Z,0.74
2023-04-06T20:15:00.464Z,0.74
2023-04-06T20:17:28.535Z,0.74
2023-04-06T20:19:56.676Z,0.75
2023-04-06T20:22:24.704Z,0.75
2023-04-06T20:24:52.801Z,0.76
2023-04-06T20:27:20.583Z,0.76
2023-04-06T20:29:48.481Z,0.75
2023-04-06T20:32:16.357Z,0.74
2023-04-06T20:34:44.280Z,0.75
2023-04-06T20:37:12.049Z,0.76
2023-04-06T20:39:39.884Z,0.77
2023-04-06T20:42:07.877Z,0.78
2023-04-06T20:44:35.966Z,0.78
2023-04-06T20:47:04.036Z,0.78
2023-04-06T20:49:31.933Z,0.78
2023-04-06T20:51:59.822Z,0.78
2023-04-06T20:54:27.809Z,0.77
2023-04-06T20:56:55.791Z,0.78
2023-04-06T20:59:23.644Z,0.79
2023-04-06T21:01:51.531Z,0.80
2023-04-06T21:04:19.766Z,0.79
2023-04-06T21:06:51.090Z,0.79
2023-04-06T21:09:18.930Z,0.79
2023-04-06T21:11:46.696Z,0.81
2023-04-06T21:14:14.522Z,0.80
2023-04-06T21:16:42.351Z,0.81
2023-04-06T21:19:10.430Z,0.81
2023-04-06T21:21:38.273Z,0.81
2023-04-06T21:24:06.282Z,0.82
2023-04-06T21:26:35.009Z,0.83
2023-04-06T21:29:02.996Z,0.84
2023-04-06T21:31:30.801Z,0.84
2023-04-06T21:33:58.650Z,0.84
2023-04-06T21:36:26.542Z,0.84
2023-04-06T21:38:54.473Z,0.86
2023-04-06T21:41:22.227Z,0.87
2023-04-06T21:43:49.961Z,0.87
2023-04-06T21:46:17.740Z,0.86
2023-04-06T21:48:45.570Z,0.87
2023-04-06T21:51:20.303Z,0.87
2023-04-06T21:53:48.572Z,0.87
2023-04-06T21:56:20.287Z,0.87
2023-04-06T21:58:48.410Z,0.88
2023-04-06T22:01:16.220Z,0.87
2023-04-06T22:03:44.241Z,0.85
2023-04-06T22:06:12.365Z,0.85
2023-04-06T22:08:40.231Z,0.85
2023-04-06T22:11:08.874Z,0.83
2023-04-06T22:13:37.116Z,0.83
2023-04-06T22:16:05.064Z,0.84
2023-04-06T22:18:33.185Z,0.83
2023-04-06T22:21:01.335Z,0.83
2023-04-06T22:23:30.146Z,0.82
2023-04-06T22:25:57.870Z,0.82
2023-04-06T22:28:25.849Z,0.83
2023-04-06T22:30:53.727Z,0.84
2023-04-06T22:33:24.019Z,0.84
2023-04-06T22:35:51.942Z,0.85
2023-04-06T22:38:19.910Z,0.84
2023-04-06T22:40:47.635Z,0.84
2023-04-06T22:43:15.349Z,0.84
2023-04-06T22:45:43.229Z,0.84
2023-04-06T22:48:13.207Z,0.85
2023-04-06T22:50:41.275Z,0.84
2023-04-06T22:53:09.212Z,0.83
2023-04-06T22:55:39.572Z,0.83
2023-04-06T22:58:07.492Z,0.83
2023-04-06T23:00:40.525Z,0.82
2023-04-06T23:03:08.636Z,0.82
2023-04-06T23:05:36.665Z,0.81
2023-04-06T23:08:08.850Z,0.82
2023-04-06T23:10:41.908Z,0.81
2023-04-06T23:13:10.313Z,0.81
2023-04-06T23:15:38.278Z,0.81
2023-04-06T23:18:06.105Z,0.82
2023-04-06T23:20:34.067Z,0.83
2023-04-06T23:23:01.769Z,0.83
2023-04-06T23:25:29.437Z,0.82
2023-04-06T23:27:57.236Z,0.82
2023-04-06T23:30:24.937Z,0.82
2023-04-06T23:32:52.673Z,0.82
2023-04-06T23:35:20.515Z,0.81
2023-04-06T23:37:48.337Z,0.81
2023-04-06T23:40:16.200Z,0.81
2023-04-06T23:42:44.144Z,0.82
2023-04-06T23:45:11.997Z,0.82
2023-04-06T23:47:39.734Z,0.82
2023-04-06T23:50:07.685Z,0.82
2023-04-06T23:52:35.347Z,0.82
2023-04-06T23:55:03.370Z,0.82
2023-04-06T23:57:31.146Z,0.80
2023-04-06T23:59:58.855Z,0.80
